createdAt,value
2022-09-26T00:02:00.695Z,2.08
2022-09-26T00:04:07.062Z,2.10
2022-09-26T00:06:10.329Z,2.20
2022-09-26T00:08:11.768Z,2.28
2022-09-26T00:10:13.419Z,2.30
2022-09-26T00:12:23.444Z,2.15
2022-09-26T00:14:29.520Z,2.00
2022-09-26T00:16:31.475Z,2.10
2022-09-26T00:18:33.906Z,1.98
2022-09-26T00:20:36.907Z,2.00
2022-09-26T00:22:38.518Z,1.98
2022-09-26T00:24:40.151Z,1.98
2022-09-26T00:26:44.402Z,2.25
2022-09-26T00:28:46.566Z,2.38
2022-09-26T00:30:48.304Z,2.15
2022-09-26T00:32:49.868Z,2.05
2022-09-26T00:34:51.681Z,2.15
2022-09-26T00:36:53.306Z,2.03
2022-09-26T00:38:55.143Z,2.35
2022-09-26T00:40:57.024Z,2.55
2022-09-26T00:42:59.255Z,2.20
2022-09-26T00:45:00.965Z,2.38
2022-09-26T00:47:03.297Z,2.22
2022-09-26T00:49:24.291Z,2.50
2022-09-26T00:51:26.115Z,2.20
2022-09-26T00:53:35.671Z,2.40
2022-09-26T00:55:43.097Z,2.40
2022-09-26T00:57:56.501Z,2.25
2022-09-26T01:00:05.105Z,2.42
2022-09-26T01:02:07.118Z,2.08
2022-09-26T01:04:10.210Z,2.53
2022-09-26T01:06:12.924Z,2.28
2022-09-26T01:08:18.259Z,3.08
2022-09-26T01:10:21.186Z,2.35
2022-09-26T01:12:22.840Z,2.20
2022-09-26T01:14:24.906Z,2.33
2022-09-26T01:16:28.222Z,2.35
2022-09-26T01:18:30.844Z,2.22
2022-09-26T01:20:48.903Z,2.53
2022-09-26T01:23:10.482Z,2.30
2022-09-26T01:25:46.326Z,2.35
2022-09-26T01:27:57.260Z,2.00
2022-09-26T01:30:35.485Z,2.38
2022-09-26T01:33:02.432Z,2.85
2022-09-26T01:35:26.118Z,2.42
2022-09-26T01:37:36.377Z,2.25
2022-09-26T01:40:42.628Z,2.47
2022-09-26T01:43:03.005Z,2.22
2022-09-26T01:45:24.495Z,2.40
2022-09-26T01:47:31.645Z,2.40
2022-09-26T01:49:34.214Z,2.20
2022-09-26T01:52:14.592Z,2.20
2022-09-26T01:54:28.528Z,2.50
2022-09-26T01:56:36.942Z,2.58
2022-09-26T01:59:17.129Z,2.30
2022-09-26T02:01:27.805Z,2.40
2022-09-26T02:03:34.695Z,2.47
2022-09-26T02:05:48.920Z,2.40
2022-09-26T02:08:12.630Z,2.20
2022-09-26T02:10:22.077Z,2.30
2022-09-26T02:12:34.047Z,2.38
2022-09-26T02:14:38.068Z,2.50
2022-09-26T02:16:44.174Z,2.58
2022-09-26T02:18:53.431Z,2.47
2022-09-26T02:21:02.515Z,2.83
2022-09-26T02:23:05.996Z,2.20
2022-09-26T02:25:09.140Z,2.90
2022-09-26T02:27:15.764Z,2.53
2022-09-26T02:29:17.829Z,2.50
2022-09-26T02:31:23.716Z,2.65
2022-09-26T02:33:28.961Z,2.38
2022-09-26T02:35:49.196Z,2.28
2022-09-26T02:37:52.604Z,2.40
2022-09-26T02:39:55.967Z,2.38
2022-09-26T02:42:09.359Z,2.70
2022-09-26T02:44:25.794Z,2.95
2022-09-26T02:46:40.938Z,2.80
2022-09-26T02:49:27.826Z,2.63
2022-09-26T02:52:07.900Z,2.40
2022-09-26T02:54:32.993Z,2.88
2022-09-26T02:56:58.345Z,2.10
2022-09-26T02:59:09.137Z,2.67
2022-09-26T03:01:26.418Z,2.53
2022-09-26T03:03:39.101Z,2.58
2022-09-26T03:05:45.879Z,3.00
2022-09-26T03:07:56.671Z,3.00
2022-09-26T03:10:03.838Z,2.35
2022-09-26T03:12:07.878Z,3.08
2022-09-26T03:14:11.366Z,3.20
2022-09-26T03:16:14.755Z,2.83
2022-09-26T03:18:20.835Z,2.90
2022-09-26T03:20:23.463Z,2.92
2022-09-26T03:22:27.896Z,2.88
2022-09-26T03:24:30.646Z,3.15
2022-09-26T03:26:34.481Z,2.70
2022-09-26T03:28:38.201Z,3.03
2022-09-26T03:30:42.773Z,2.92
2022-09-26T03:32:57.919Z,3.05
2022-09-26T03:35:01.179Z,3.22
2022-09-26T03:37:02.818Z,3.00
2022-09-26T03:39:04.539Z,3.00
2022-09-26T03:41:28.084Z,3.45
2022-09-26T03:43:49.884Z,3.40
2022-09-26T03:45:51.995Z,2.95
2022-09-26T03:47:58.657Z,3.10
2022-09-26T03:50:01.185Z,3.03
2022-09-26T03:52:03.735Z,3.40
2022-09-26T03:54:05.653Z,3.17
2022-09-26T03:56:10.101Z,3.47
2022-09-26T03:58:11.859Z,3.28
2022-09-26T04:00:14.712Z,3.40
2022-09-26T04:02:21.147Z,3.50
2022-09-26T04:04:32.322Z,3.45
2022-09-26T04:06:34.107Z,3.65
2022-09-26T04:08:38.545Z,3.63
2022-09-26T04:10:40.527Z,3.45
2022-09-26T04:12:44.451Z,3.63
2022-09-26T04:14:46.685Z,3.60
2022-09-26T04:16:48.559Z,3.90
2022-09-26T04:18:58.731Z,3.63
2022-09-26T04:21:09.783Z,3.67
2022-09-26T04:23:13.541Z,3.88
2022-09-26T04:25:15.269Z,3.85
2022-09-26T04:27:18.914Z,3.80
2022-09-26T04:29:23.134Z,3.70
2022-09-26T04:31:46.383Z,4.03
2022-09-26T04:33:51.031Z,3.70
2022-09-26T04:35:52.873Z,3.58
2022-09-26T04:37:57.617Z,3.85
2022-09-26T04:39:59.569Z,3.70
2022-09-26T04:42:02.216Z,3.75
2022-09-26T04:44:03.908Z,3.88
2022-09-26T04:46:15.820Z,3.88
2022-09-26T04:48:21.281Z,3.50
2022-09-26T04:50:32.030Z,3.58
2022-09-26T04:52:41.932Z,3.47
2022-09-26T04:54:49.409Z,3.08
2022-09-26T04:56:51.220Z,3.88
2022-09-26T04:58:56.474Z,4.00
2022-09-26T05:01:07.364Z,3.38
2022-09-26T05:03:26.140Z,3.47
2022-09-26T05:05:30.991Z,3.28
2022-09-26T05:07:32.576Z,3.65
2022-09-26T05:09:36.222Z,3.65
2022-09-26T05:11:45.485Z,3.17
2022-09-26T05:13:53.766Z,3.45
2022-09-26T05:16:00.116Z,3.58
2022-09-26T05:18:02.485Z,2.92
2022-09-26T05:20:10.811Z,3.67
2022-09-26T05:22:34.817Z,3.58
2022-09-26T05:24:56.408Z,3.40
2022-09-26T05:26:58.138Z,3.15
2022-09-26T05:29:16.815Z,3.33
2022-09-26T05:31:29.401Z,3.17
2022-09-26T05:33:31.165Z,3.17
2022-09-26T05:35:36.406Z,3.72
2022-09-26T05:37:38.308Z,3.38
2022-09-26T05:40:01.766Z,3.60
2022-09-26T05:42:05.904Z,3.38
2022-09-26T05:44:07.847Z,3.05
2022-09-26T05:46:11.972Z,3.45
2022-09-26T05:48:20.821Z,2.80
2022-09-26T05:50:24.689Z,3.08
2022-09-26T05:52:30.204Z,3.20
2022-09-26T05:54:35.004Z,3.30
2022-09-26T05:56:56.372Z,2.92
2022-09-26T05:59:00.759Z,3.20
2022-09-26T06:01:21.184Z,2.92
2022-09-26T06:03:34.735Z,3.35
2022-09-26T06:05:45.429Z,2.92
2022-09-26T06:07:49.987Z,3.70
2022-09-26T06:10:08.668Z,2.97
2022-09-26T06:12:28.500Z,2.85
2022-09-26T06:14:31.192Z,3.10
2022-09-26T06:16:34.260Z,2.97
2022-09-26T06:18:36.911Z,2.90
2022-09-26T06:20:38.512Z,3.25
2022-09-26T06:22:41.305Z,2.90
2022-09-26T06:24:43.264Z,3.90
2022-09-26T06:26:47.322Z,3.30
2022-09-26T06:28:54.886Z,3.17
2022-09-26T06:30:57.603Z,3.60
2022-09-26T06:33:23.105Z,3.78
2022-09-26T06:35:47.824Z,3.88
2022-09-26T06:37:58.974Z,3.22
2022-09-26T06:40:00.957Z,3.33
2022-09-26T06:42:07.335Z,3.05
2022-09-26T06:44:29.876Z,2.90
2022-09-26T06:46:50.000Z,3.50
2022-09-26T06:48:57.832Z,3.20
2022-09-26T06:51:26.824Z,3.65
2022-09-26T06:53:28.563Z,3.85
2022-09-26T06:55:32.575Z,4.35
2022-09-26T06:57:42.604Z,4.93
2022-09-26T06:59:44.618Z,4.45
2022-09-26T07:01:56.624Z,4.95
2022-09-26T07:04:29.801Z,5.10
2022-09-26T07:06:42.424Z,4.50
2022-09-26T07:09:01.363Z,4.60
2022-09-26T07:12:12.408Z,4.60
2022-09-26T07:14:03.708Z,4.53
2022-09-26T07:16:06.170Z,5.30
2022-09-26T07:18:26.414Z,4.65
2022-09-26T07:20:56.838Z,4.47
2022-09-26T07:23:30.990Z,4.50
2022-09-26T07:25:33.850Z,4.38
2022-09-26T07:27:37.762Z,4.00
2022-09-26T07:29:39.591Z,4.50
2022-09-26T07:31:43.050Z,4.30
2022-09-26T07:33:52.864Z,4.47
2022-09-26T07:35:55.830Z,3.38
2022-09-26T07:37:59.117Z,3.92
2022-09-26T07:40:01.985Z,3.70
2022-09-26T07:42:07.225Z,3.75
2022-09-26T07:46:49.827Z,3.63
2022-09-26T07:49:11.084Z,3.55
2022-09-26T07:51:33.601Z,4.20
2022-09-26T07:53:41.390Z,3.60
2022-09-26T07:56:06.173Z,3.17
2022-09-26T07:58:38.753Z,3.67
2022-09-26T08:01:00.426Z,3.72
2022-09-26T08:03:31.193Z,3.50
2022-09-26T08:05:35.736Z,3.25
2022-09-26T08:07:37.977Z,3.45
2022-09-26T08:09:48.161Z,3.30
2022-09-26T08:12:17.383Z,3.10
2022-09-26T08:14:38.370Z,3.58
2022-09-26T08:16:54.656Z,2.92
2022-09-26T08:18:57.434Z,3.20
2022-09-26T08:21:05.714Z,3.20
2022-09-26T08:23:07.587Z,3.05
2022-09-26T08:25:09.714Z,3.13
2022-09-26T08:27:15.644Z,3.15
2022-09-26T08:29:17.883Z,3.05
2022-09-26T08:31:22.594Z,3.00
2022-09-26T08:33:25.046Z,2.67
2022-09-26T08:35:26.810Z,2.70
2022-09-26T08:37:46.875Z,2.45
2022-09-26T08:40:07.786Z,2.45
2022-09-26T08:43:04.302Z,2.63
2022-09-26T08:46:26.632Z,2.50
2022-09-26T08:49:22.748Z,2.45
2022-09-26T08:51:29.070Z,2.80
2022-09-26T08:53:46.992Z,2.85
2022-09-26T08:55:50.373Z,2.45
2022-09-26T08:58:18.980Z,2.67
2022-09-26T09:00:24.970Z,2.40
2022-09-26T09:02:44.486Z,2.30
2022-09-26T09:04:58.514Z,2.63
2022-09-26T09:07:10.581Z,2.50
2022-09-26T09:09:17.108Z,2.33
2022-09-26T09:11:51.988Z,2.25
2022-09-26T09:14:23.230Z,2.17
2022-09-26T09:17:17.640Z,2.40
2022-09-26T09:19:53.361Z,2.35
2022-09-26T09:22:33.187Z,2.20
2022-09-26T09:25:03.655Z,2.40
2022-09-26T09:27:53.400Z,2.28
2022-09-26T09:30:31.306Z,1.88
2022-09-26T09:32:45.421Z,1.90
2022-09-26T09:34:57.155Z,1.75
2022-09-26T09:37:24.119Z,2.40
2022-09-26T09:39:36.150Z,2.10
2022-09-26T09:41:52.504Z,2.20
2022-09-26T09:43:59.090Z,1.80
2022-09-26T09:46:29.537Z,2.08
2022-09-26T09:48:31.310Z,2.10
2022-09-26T09:50:51.865Z,2.03
2022-09-26T09:53:22.620Z,1.90
2022-09-26T09:55:51.298Z,2.05
2022-09-26T09:58:11.228Z,1.95
2022-09-26T10:00:20.288Z,2.10
2022-09-26T10:02:53.170Z,1.70
2022-09-26T10:05:16.715Z,1.55
2022-09-26T10:07:19.171Z,1.33
2022-09-26T10:09:43.902Z,1.38
2022-09-26T10:12:17.147Z,1.30
2022-09-26T10:14:48.658Z,1.50
2022-09-26T10:17:24.285Z,1.33
2022-09-26T10:19:40.839Z,1.70
2022-09-26T10:21:47.481Z,1.60
2022-09-26T10:23:50.626Z,1.75
2022-09-26T10:26:16.183Z,1.30
2022-09-26T10:28:29.973Z,1.75
2022-09-26T10:30:46.603Z,1.67
2022-09-26T10:32:56.823Z,1.35
2022-09-26T10:35:24.485Z,1.55
2022-09-26T10:37:30.419Z,1.73
2022-09-26T10:40:11.659Z,1.30
2022-09-26T10:42:22.910Z,1.60
2022-09-26T10:44:33.983Z,1.40
2022-09-26T10:46:46.959Z,1.40
2022-09-26T10:49:23.613Z,1.27
2022-09-26T10:51:57.101Z,1.50
2022-09-26T10:54:04.973Z,1.65
2022-09-26T10:56:17.019Z,1.30
2022-09-26T10:58:22.765Z,1.38
2022-09-26T11:00:49.385Z,1.55
2022-09-26T11:02:54.112Z,1.40
2022-09-26T11:05:19.293Z,1.20
2022-09-26T11:07:52.641Z,1.25
2022-09-26T11:10:17.482Z,1.10
2022-09-26T11:12:32.299Z,1.05
2022-09-26T11:14:45.803Z,1.48
2022-09-26T11:16:47.584Z,1.00
2022-09-26T11:19:09.576Z,1.02
2022-09-26T11:21:33.720Z,1.27
2022-09-26T11:24:02.781Z,1.13
2022-09-26T11:26:17.077Z,1.02
2022-09-26T11:28:34.274Z,1.00
2022-09-26T11:31:01.795Z,1.00
2022-09-26T11:33:13.561Z,1.00
2022-09-26T11:35:44.092Z,1.05
2022-09-26T11:38:08.286Z,1.10
2022-09-26T11:40:41.929Z,0.90
2022-09-26T11:42:55.073Z,1.00
2022-09-26T11:45:04.849Z,0.95
2022-09-26T11:47:50.987Z,0.88
2022-09-26T11:50:23.296Z,0.90
2022-09-26T11:53:04.689Z,0.80
2022-09-26T11:55:24.292Z,0.90
2022-09-26T11:57:44.291Z,0.90
2022-09-26T11:59:48.527Z,1.00
2022-09-26T12:02:04.879Z,0.77
2022-09-26T12:04:18.337Z,0.93
2022-09-26T12:06:33.501Z,0.95
2022-09-26T12:09:01.426Z,0.80
2022-09-26T12:11:15.613Z,0.80
2022-09-26T12:13:41.474Z,0.80
2022-09-26T12:15:45.955Z,1.10
2022-09-26T12:18:15.721Z,1.20
2022-09-26T12:20:31.438Z,0.93
2022-09-26T12:22:51.096Z,1.10
2022-09-26T12:24:58.934Z,1.33
2022-09-26T12:27:14.562Z,0.85
2022-09-26T12:29:32.171Z,0.98
2022-09-26T12:31:52.595Z,1.00
2022-09-26T12:34:12.299Z,1.10
2022-09-26T12:36:25.881Z,0.90
2022-09-26T12:38:42.401Z,1.00
2022-09-26T12:40:59.907Z,0.93
2022-09-26T12:43:33.866Z,1.02
2022-09-26T12:45:58.455Z,0.80
2022-09-26T12:48:35.692Z,1.02
2022-09-26T12:51:03.214Z,0.70
2022-09-26T12:53:28.850Z,0.82
2022-09-26T12:55:51.566Z,0.80
2022-09-26T12:58:30.071Z,1.20
2022-09-26T13:00:40.861Z,0.90
2022-09-26T13:03:11.042Z,0.82
2022-09-26T13:05:37.055Z,0.80
2022-09-26T13:07:46.715Z,0.85
2022-09-26T13:10:17.288Z,0.82
2022-09-26T13:12:46.576Z,0.80
2022-09-26T13:15:02.407Z,0.90
2022-09-26T13:17:10.895Z,0.80
2022-09-26T13:19:54.351Z,0.90
2022-09-26T13:22:02.942Z,0.70
2022-09-26T13:24:13.983Z,0.77
2022-09-26T13:26:33.899Z,0.90
2022-09-26T13:29:00.503Z,0.82
2022-09-26T13:31:17.772Z,0.68
2022-09-26T13:33:40.205Z,0.60
2022-09-26T13:35:43.555Z,0.90
2022-09-26T13:38:10.071Z,0.82
2022-09-26T13:40:43.934Z,0.70
2022-09-26T13:42:51.601Z,0.63
2022-09-26T13:45:28.737Z,0.80
2022-09-26T13:47:55.120Z,0.70
2022-09-26T13:49:56.966Z,0.70
2022-09-26T13:52:34.242Z,0.60
2022-09-26T13:54:45.372Z,0.80
2022-09-26T13:56:50.977Z,0.73
2022-09-26T13:59:08.269Z,0.80
2022-09-26T14:01:25.734Z,0.90
2022-09-26T14:03:28.238Z,0.82
2022-09-26T14:05:51.031Z,0.70
2022-09-26T14:08:11.752Z,0.80
2022-09-26T14:10:34.800Z,0.77
2022-09-26T14:13:10.291Z,0.93
2022-09-26T14:15:23.791Z,0.80
2022-09-26T14:17:47.350Z,0.82
2022-09-26T14:19:55.649Z,0.90
2022-09-26T14:22:20.794Z,1.10
2022-09-26T14:24:35.885Z,0.70
2022-09-26T14:27:09.987Z,0.90
2022-09-26T14:29:30.791Z,1.00
2022-09-26T14:31:39.152Z,0.70
2022-09-26T14:33:43.042Z,0.80
2022-09-26T14:35:45.166Z,0.60
2022-09-26T14:37:50.516Z,0.90
2022-09-26T14:40:00.271Z,0.70
2022-09-26T14:42:30.139Z,0.65
2022-09-26T14:44:36.962Z,0.80
2022-09-26T14:46:42.186Z,0.98
2022-09-26T14:48:47.393Z,0.77
2022-09-26T14:51:16.354Z,0.90
2022-09-26T14:53:26.907Z,0.70
2022-09-26T14:55:30.839Z,0.80
2022-09-26T14:57:34.374Z,0.73
2022-09-26T14:59:43.560Z,0.77
2022-09-26T15:01:46.329Z,0.80
2022-09-26T15:04:14.031Z,0.80
2022-09-26T15:06:16.607Z,0.73
2022-09-26T15:08:29.697Z,0.73
2022-09-26T15:10:48.039Z,0.85
2022-09-26T15:13:01.913Z,0.77
2022-09-26T15:15:07.436Z,0.70
2022-09-26T15:17:18.574Z,0.77
2022-09-26T15:19:35.552Z,0.63
2022-09-26T15:21:41.406Z,0.90
2022-09-26T15:23:51.953Z,0.70
2022-09-26T15:26:07.851Z,0.65
2022-09-26T15:28:10.040Z,0.80
2022-09-26T15:30:18.473Z,0.88
2022-09-26T15:32:28.943Z,0.70
2022-09-26T15:34:30.839Z,0.50
2022-09-26T15:36:39.033Z,0.75
2022-09-26T15:38:45.128Z,0.70
2022-09-26T15:41:04.314Z,0.70
2022-09-26T15:43:12.110Z,0.70
2022-09-26T15:45:27.670Z,0.70
2022-09-26T15:47:30.008Z,0.85
2022-09-26T15:49:35.645Z,0.60
2022-09-26T15:51:40.016Z,0.60
2022-09-26T15:54:00.441Z,0.52
2022-09-26T15:56:18.099Z,0.73
2022-09-26T15:58:27.563Z,0.77
2022-09-26T16:00:37.490Z,0.73
2022-09-26T16:02:39.280Z,0.60
2022-09-26T16:04:41.294Z,0.85
2022-09-26T16:06:58.714Z,0.82
2022-09-26T16:09:08.076Z,1.42
2022-09-26T16:11:10.254Z,1.90
2022-09-26T16:13:27.827Z,2.00
2022-09-26T16:15:31.442Z,2.03
2022-09-26T16:17:49.354Z,1.80
2022-09-26T16:19:53.412Z,2.13
2022-09-26T16:21:59.099Z,1.80
2022-09-26T16:24:30.889Z,1.85
2022-09-26T16:26:40.699Z,1.90
2022-09-26T16:28:44.875Z,1.67
2022-09-26T16:31:08.498Z,1.40
2022-09-26T16:33:40.367Z,1.55
2022-09-26T16:35:47.822Z,1.40
2022-09-26T16:38:18.973Z,1.50
2022-09-26T16:40:23.846Z,2.00
2022-09-26T16:42:33.416Z,1.70
2022-09-26T16:44:41.009Z,2.10
2022-09-26T16:46:42.753Z,1.98
2022-09-26T16:48:50.538Z,1.90
2022-09-26T16:51:20.166Z,1.38
2022-09-26T16:53:21.995Z,1.45
2022-09-26T16:55:25.295Z,1.15
2022-09-26T16:57:35.575Z,1.33
2022-09-26T16:59:40.121Z,1.67
2022-09-26T17:01:54.094Z,1.30
2022-09-26T17:03:56.910Z,2.10
2022-09-26T17:06:00.295Z,1.88
2022-09-26T17:08:01.953Z,1.42
2022-09-26T17:10:06.539Z,1.33
2022-09-26T17:12:19.199Z,1.58
2022-09-26T17:14:24.043Z,1.10
2022-09-26T17:16:28.028Z,0.90
2022-09-26T17:18:35.851Z,1.17
2022-09-26T17:20:40.907Z,0.75
2022-09-26T17:22:45.862Z,0.80
2022-09-26T17:24:54.288Z,1.00
2022-09-26T17:26:59.498Z,1.10
2022-09-26T17:29:06.556Z,1.48
2022-09-26T17:31:14.830Z,1.20
2022-09-26T17:33:16.719Z,1.10
2022-09-26T17:35:26.946Z,1.30
2022-09-26T17:37:29.031Z,1.20
2022-09-26T17:39:31.016Z,1.20
2022-09-26T17:41:34.520Z,1.30
2022-09-26T17:43:36.189Z,1.02
2022-09-26T17:45:51.784Z,1.27
2022-09-26T17:47:54.722Z,1.10
2022-09-26T17:49:59.529Z,1.17
2022-09-26T17:52:03.344Z,1.67
2022-09-26T17:54:07.412Z,1.60
2022-09-26T17:56:10.344Z,1.48
2022-09-26T17:58:12.296Z,1.50
2022-09-26T18:00:20.317Z,1.35
2022-09-26T18:02:55.154Z,1.10
2022-09-26T18:05:01.089Z,1.05
2022-09-26T18:07:04.610Z,1.00
2022-09-26T18:09:10.121Z,0.90
2022-09-26T18:11:17.743Z,1.00
2022-09-26T18:13:22.653Z,1.05
2022-09-26T18:15:25.537Z,0.90
2022-09-26T18:17:27.248Z,0.70
2022-09-26T18:19:37.013Z,0.90
2022-09-26T18:21:40.175Z,1.10
2022-09-26T18:23:51.582Z,1.02
2022-09-26T18:25:57.151Z,0.90
2022-09-26T18:28:07.797Z,0.95
2022-09-26T18:30:15.407Z,0.80
2022-09-26T18:32:31.769Z,0.90
2022-09-26T18:34:33.329Z,0.98
2022-09-26T18:36:35.399Z,1.10
2022-09-26T18:38:36.980Z,1.30
2022-09-26T18:40:43.298Z,1.15
2022-09-26T18:42:47.457Z,1.20
2022-09-26T18:44:51.116Z,0.90
2022-09-26T18:46:57.161Z,1.10
2022-09-26T18:49:06.269Z,1.20
2022-09-26T18:51:10.026Z,1.30
2022-09-26T18:53:17.853Z,1.30
2022-09-26T18:55:43.525Z,1.52
2022-09-26T18:58:23.755Z,1.40
2022-09-26T19:00:42.091Z,1.40
2022-09-26T19:02:54.281Z,1.40
2022-09-26T19:04:57.557Z,1.70
2022-09-26T19:07:07.444Z,2.00
2022-09-26T19:09:15.213Z,2.03
2022-09-26T19:11:19.781Z,2.10
2022-09-26T19:13:26.718Z,1.98
2022-09-26T19:15:30.430Z,2.40
2022-09-26T19:17:31.951Z,2.10
2022-09-26T19:19:36.492Z,1.80
2022-09-26T19:21:41.973Z,1.80
2022-09-26T19:23:44.677Z,1.83
2022-09-26T19:25:46.675Z,1.90
2022-09-26T19:27:53.110Z,1.80
2022-09-26T19:30:20.660Z,1.60
2022-09-26T19:32:36.647Z,1.70
2022-09-26T19:34:39.332Z,1.70
2022-09-26T19:36:41.125Z,1.50
2022-09-26T19:38:43.206Z,1.45
2022-09-26T19:40:48.574Z,1.60
2022-09-26T19:42:50.655Z,1.77
2022-09-26T19:44:52.313Z,2.00
2022-09-26T19:47:01.166Z,2.22
2022-09-26T19:49:03.155Z,2.65
2022-09-26T19:51:07.623Z,2.42
2022-09-26T19:53:14.277Z,2.40
2022-09-26T19:55:24.452Z,2.25
2022-09-26T19:57:29.026Z,2.10
2022-09-26T19:59:30.678Z,2.60
2022-09-26T20:01:35.312Z,1.92
2022-09-26T20:03:48.083Z,2.05
2022-09-26T20:05:50.239Z,2.03
2022-09-26T20:07:52.908Z,2.17
2022-09-26T20:09:56.863Z,2.20
2022-09-26T20:11:58.712Z,2.20
2022-09-26T20:14:18.906Z,2.05
2022-09-26T20:16:21.060Z,2.30
2022-09-26T20:18:24.103Z,1.70
2022-09-26T20:20:32.448Z,1.92
2022-09-26T20:22:34.103Z,1.60
2022-09-26T20:24:42.788Z,1.35
2022-09-26T20:26:45.276Z,1.60
2022-09-26T20:28:49.608Z,1.55
2022-09-26T20:30:51.434Z,1.80
2022-09-26T20:32:53.795Z,1.40
2022-09-26T20:35:00.437Z,1.40
2022-09-26T20:37:02.913Z,1.40
2022-09-26T20:39:07.489Z,1.20
2022-09-26T20:41:20.469Z,1.40
2022-09-26T20:43:28.537Z,1.45
2022-09-26T20:45:39.391Z,1.40
2022-09-26T20:47:42.840Z,1.15
2022-09-26T20:49:54.054Z,1.00
2022-09-26T20:51:59.966Z,1.15
2022-09-26T20:54:05.846Z,1.15
2022-09-26T20:56:21.004Z,1.23
2022-09-26T20:58:25.572Z,1.45
2022-09-26T21:00:28.593Z,1.10
2022-09-26T21:02:39.222Z,1.23
2022-09-26T21:04:41.019Z,0.98
2022-09-26T21:06:43.297Z,1.20
2022-09-26T21:08:46.357Z,1.27
2022-09-26T21:10:48.075Z,0.90
2022-09-26T21:12:52.012Z,1.30
2022-09-26T21:15:04.000Z,1.17
2022-09-26T21:17:15.201Z,1.08
2022-09-26T21:19:23.271Z,0.75
2022-09-26T21:21:34.756Z,0.90
2022-09-26T21:23:47.462Z,1.10
2022-09-26T21:25:49.092Z,1.02
2022-09-26T21:27:55.626Z,1.00
2022-09-26T21:29:57.095Z,1.00
2022-09-26T21:32:04.423Z,1.10
2022-09-26T21:34:15.536Z,0.90
2022-09-26T21:36:21.248Z,1.00
2022-09-26T21:38:22.978Z,1.00
2022-09-26T21:40:28.605Z,1.00
2022-09-26T21:42:30.259Z,0.80
2022-09-26T21:44:38.531Z,1.10
2022-09-26T21:46:40.618Z,1.25
2022-09-26T21:48:43.365Z,1.00
2022-09-26T21:50:57.953Z,1.20
2022-09-26T21:53:06.817Z,0.85
2022-09-26T21:55:17.231Z,0.82
2022-09-26T21:57:23.782Z,1.15
2022-09-26T21:59:29.345Z,1.00
2022-09-26T22:01:31.165Z,1.00
2022-09-26T22:03:33.239Z,1.00
2022-09-26T22:05:37.233Z,1.00
2022-09-26T22:07:38.866Z,1.00
2022-09-26T22:09:40.303Z,1.23
2022-09-26T22:11:41.920Z,1.10
2022-09-26T22:13:43.562Z,0.85
2022-09-26T22:15:45.373Z,1.00
2022-09-26T22:17:47.416Z,1.00
2022-09-26T22:19:53.048Z,0.80
2022-09-26T22:21:54.855Z,1.05
2022-09-26T22:23:58.925Z,1.02
2022-09-26T22:26:01.136Z,1.00
2022-09-26T22:28:02.881Z,0.98
2022-09-26T22:30:12.124Z,1.10
2022-09-26T22:32:13.876Z,0.93
2022-09-26T22:34:15.768Z,1.10
2022-09-26T22:36:19.830Z,1.10
2022-09-26T22:38:21.555Z,1.13
2022-09-26T22:40:23.339Z,1.08
2022-09-26T22:42:25.040Z,1.02
2022-09-26T22:44:26.735Z,1.20
2022-09-26T22:46:28.712Z,1.00
2022-09-26T22:48:32.484Z,1.10
2022-09-26T22:50:34.593Z,1.30
2022-09-26T22:52:36.191Z,1.00
2022-09-26T22:54:46.675Z,1.10
2022-09-26T22:56:51.013Z,1.05
2022-09-26T22:58:55.238Z,1.13
2022-09-26T23:01:01.269Z,1.20
2022-09-26T23:03:03.015Z,1.20
2022-09-26T23:05:04.888Z,0.95
2022-09-26T23:07:06.513Z,1.10
2022-09-26T23:09:08.099Z,1.05
2022-09-26T23:11:11.879Z,1.27
2022-09-26T23:13:13.324Z,1.30
2022-09-26T23:15:15.295Z,1.30
2022-09-26T23:17:17.018Z,1.45
2022-09-26T23:19:21.263Z,1.75
2022-09-26T23:21:25.632Z,1.77
2022-09-26T23:23:27.222Z,1.83
2022-09-26T23:25:28.952Z,1.45
2022-09-26T23:27:30.402Z,1.50
2022-09-26T23:29:32.388Z,1.58
2022-09-26T23:31:38.689Z,1.48
2022-09-26T23:33:40.202Z,0.95
2022-09-26T23:35:49.102Z,1.40
2022-09-26T23:37:50.671Z,1.02
2022-09-26T23:39:52.799Z,1.23
2022-09-26T23:41:54.455Z,1.20
2022-09-26T23:43:56.107Z,1.30
2022-09-26T23:45:57.828Z,1.27
2022-09-26T23:47:59.387Z,1.10
2022-09-26T23:50:00.871Z,1.30
2022-09-26T23:52:02.741Z,1.10
2022-09-26T23:54:04.425Z,1.08
2022-09-26T23:56:09.001Z,1.20
2022-09-26T23:58:16.694Z,1.30
